Time;durP1;ratioP1;P1;durP2;ratioP2;P2;SDS_P1;SDS_P2;PMS_P1;PMS_P2;Temp;Humidity;BMP_temperature;BMP_pressure;BME280_temperature;BME280_humidity;BME280_pressure;Samples;Min_cycle;Max_cycle;Signal;HPM_P1;HPM_P2
2022/12/28 00:06:53;;;;;;;2.83;1.88;;;1.60;99.90;;;;;;21112388;28;20397;-82
2022/12/28 00:16:54;;;;;;;2.95;1.80;;;1.60;99.90;;;;;;21057750;28;20036;-82
2022/12/28 00:26:57;;;;;;;4.47;2.05;;;1.70;99.90;;;;;;21072484;28;20433;-82
2022/12/28 00:36:58;;;;;;;5.40;2.17;;;1.80;99.90;;;;;;21079864;28;20028;-83
2022/12/28 00:46:59;;;;;;;3.65;2.03;;;1.80;99.90;;;;;;21119063;28;20393;-83
2022/12/28 00:56:59;;;;;;;4.05;2.13;;;1.70;99.90;;;;;;21096474;28;20053;-82
2022/12/28 01:07:00;;;;;;;7.45;2.70;;;1.70;99.90;;;;;;21115477;28;20031;-83
2022/12/28 01:17:01;;;;;;;3.70;2.10;;;1.90;99.90;;;;;;21136566;28;20040;-81
2022/12/28 01:27:04;;;;;;;6.70;2.10;;;2.00;99.90;;;;;;21086941;28;20035;-81
2022/12/28 01:37:05;;;;;;;6.72;2.22;;;2.00;99.90;;;;;;21073800;28;20115;-82
2022/12/28 01:47:13;;;;;;;8.13;2.40;;;1.90;99.90;;;;;;21049290;28;20028;-81
2022/12/28 01:57:14;;;;;;;4.45;2.20;;;2.00;99.90;;;;;;21048752;28;20043;-81
2022/12/28 02:07:25;;;;;;;6.45;3.72;;;2.00;99.90;;;;;;21041377;28;20029;-82
2022/12/28 02:17:26;;;;;;;9.33;4.33;;;2.10;99.90;;;;;;21031133;28;20039;-83
2022/12/28 02:28:12;;;;;;;22.98;9.82;;;2.30;99.90;;;;;;21035545;28;20111;-81
2022/12/28 02:38:58;;;;;;;30.58;11.35;;;2.60;99.90;;;;;;21025968;28;20032;-81
2022/12/28 02:59:44;;;;;;;32.03;13.20;;;2.60;99.90;;;;;;21089227;28;20034;-82
2022/12/28 03:09:59;;;;;;;18.75;7.25;;;2.70;99.90;;;;;;21088240;28;20107;-82
2022/12/28 03:31:05;;;;;;;53.47;12.73;;;2.50;99.90;;;;;;20851253;28;20041;-83
2022/12/28 03:41:15;;;;;;;24.88;9.07;;;2.40;99.90;;;;;;21078359;28;20040;-81
2022/12/28 03:51:22;;;;;;;17.13;7.20;;;2.30;99.90;;;;;;21095314;28;20050;-83
2022/12/28 04:01:24;;;;;;;20.95;8.35;;;2.10;99.90;;;;;;21090898;28;20024;-84
2022/12/28 04:11:25;;;;;;;30.08;11.18;;;2.20;99.90;;;;;;21120564;28;20053;-83
2022/12/28 04:21:28;;;;;;;32.38;11.45;;;2.40;99.90;;;;;;21110315;28;20096;-83
2022/12/28 04:31:30;;;;;;;24.38;8.93;;;2.40;99.90;;;;;;21135221;28;20039;-82
2022/12/28 04:41:40;;;;;;;34.72;11.95;;;2.30;99.90;;;;;;21092693;28;20039;-84
2022/12/28 04:51:41;;;;;;;31.80;12.55;;;2.40;99.90;;;;;;21057241;28;20024;-83
2022/12/28 05:01:42;;;;;;;38.15;13.32;;;2.50;99.90;;;;;;21037481;28;20028;-83
2022/12/28 05:11:42;;;;;;;38.03;11.48;;;2.50;99.90;;;;;;21059211;28;20035;-83
2022/12/28 05:21:43;;;;;;;38.17;13.18;;;2.40;99.90;;;;;;21132243;28;20032;-83
2022/12/28 05:31:44;;;;;;;40.95;12.73;;;2.40;99.90;;;;;;21115494;28;20077;-84
2022/12/28 05:41:45;;;;;;;24.13;8.13;;;2.40;99.90;;;;;;21129159;28;20027;-84
2022/12/28 05:51:50;;;;;;;33.05;9.68;;;2.30;99.90;;;;;;21131220;28;20032;-83
2022/12/28 06:01:51;;;;;;;28.23;10.10;;;2.20;99.90;;;;;;21118635;28;20119;-84
2022/12/28 06:11:52;;;;;;;26.65;10.30;;;2.30;99.90;;;;;;21129118;28;20034;-81
2022/12/28 06:21:52;;;;;;;28.48;10.05;;;2.30;99.90;;;;;;21117335;28;20095;-83
2022/12/28 06:31:55;;;;;;;37.58;11.55;;;2.20;99.90;;;;;;21142836;28;20435;-83
2022/12/28 06:41:56;;;;;;;43.90;11.75;;;2.40;99.90;;;;;;21080013;28;20506;-82
2022/12/28 06:51:56;;;;;;;36.13;12.45;;;2.40;99.90;;;;;;21093139;28;20108;-82
2022/12/28 07:01:57;;;;;;;46.35;11.30;;;2.40;99.90;;;;;;21082138;28;20036;-83
2022/12/28 07:11:58;;;;;;;27.52;8.23;;;2.40;99.90;;;;;;21039731;28;20032;-81
2022/12/28 07:21:59;;;;;;;19.58;6.85;;;2.10;99.90;;;;;;21089340;28;20039;-82
2022/12/28 07:31:59;;;;;;;93.47;13.60;;;3.50;99.90;;;;;;21112776;28;20043;-81
2022/12/28 07:42:05;;;;;;;101.45;13.40;;;2.50;99.90;;;;;;21133801;28;20111;-83
2022/12/28 07:52:06;;;;;;;48.78;12.52;;;2.40;99.90;;;;;;21119887;28;20035;-82
2022/12/28 08:02:09;;;;;;;35.00;11.80;;;2.30;99.90;;;;;;21103277;28;20025;-82
2022/12/28 08:12:10;;;;;;;43.90;13.05;;;2.40;99.90;;;;;;21084376;28;20055;-82
2022/12/28 08:22:11;;;;;;;62.13;14.95;;;2.40;99.90;;;;;;21080547;28;20028;-82
2022/12/28 08:32:11;;;;;;;71.70;14.80;;;2.50;99.90;;;;;;21065843;28;20055;-83
2022/12/28 08:42:12;;;;;;;62.40;15.82;;;2.60;99.90;;;;;;21055478;28;20072;-81
2022/12/28 08:52:13;;;;;;;104.13;16.15;;;2.80;99.90;;;;;;21076474;28;20036;-82
2022/12/28 09:02:14;;;;;;;40.20;15.23;;;2.90;99.90;;;;;;21071873;28;20039;-80
2022/12/28 09:12:15;;;;;;;48.25;15.90;;;3.30;99.90;;;;;;21066141;28;20154;-81
2022/12/28 09:22:15;;;;;;;48.15;18.55;;;3.60;99.90;;;;;;21054341;28;20055;-82
2022/12/28 09:32:16;;;;;;;47.92;17.38;;;3.60;99.90;;;;;;21123020;28;20028;-80
2022/12/28 09:42:27;;;;;;;54.17;18.77;;;3.70;99.90;;;;;;21068283;28;20028;-81
2022/12/28 09:52:51;;;;;;;30.52;13.10;;;4.60;99.90;;;;;;21107477;28;20032;-81
2022/12/28 10:02:57;;;;;;;19.30;9.25;;;5.60;99.90;;;;;;21099172;28;20024;-79
2022/12/28 10:13:11;;;;;;;12.05;6.18;;;6.00;99.90;;;;;;21092688;28;20031;-81
2022/12/28 10:23:16;;;;;;;14.02;6.35;;;6.50;99.90;;;;;;20964097;22;20045;-77
2022/12/28 10:33:19;;;;;;;13.07;6.63;;;7.10;99.90;;;;;;20910884;28;20037;-78
2022/12/28 10:43:20;;;;;;;10.13;6.00;;;8.90;99.90;;;;;;20898642;28;20048;-77
2022/12/28 10:53:27;;;;;;;8.02;4.13;;;9.70;99.90;;;;;;20943433;28;20386;-77
2022/12/28 11:03:34;;;;;;;5.63;3.15;;;10.40;99.90;;;;;;20920574;28;20504;-77
2022/12/28 11:13:37;;;;;;;12.13;6.72;;;11.10;99.90;;;;;;20947272;28;20029;-77
2022/12/28 11:23:38;;;;;;;8.55;4.88;;;11.70;99.90;;;;;;20913319;28;20059;-77
2022/12/28 11:33:44;;;;;;;8.20;4.67;;;10.40;99.90;;;;;;20864082;28;20040;-77
2022/12/28 11:44:00;;;;;;;8.20;4.78;;;10.80;99.90;;;;;;20917748;28;20051;-77
2022/12/28 11:54:03;;;;;;;7.95;3.72;;;11.40;99.90;;;;;;20935943;28;20025;-76
2022/12/28 12:04:04;;;;;;;7.20;3.97;;;11.80;99.90;;;;;;20850988;28;20057;-77
2022/12/28 12:14:07;;;;;;;10.13;4.10;;;12.60;99.90;;;;;;20873196;28;20029;-77
2022/12/28 12:24:25;;;;;;;5.15;3.33;;;11.70;99.90;;;;;;20889311;28;20025;-77
2022/12/28 12:34:54;;;;;;;6.00;3.25;;;12.40;99.90;;;;;;20849551;28;20040;-77
2022/12/28 12:45:02;;;;;;;5.28;3.42;;;11.60;99.90;;;;;;20894911;28;20124;-76
2022/12/28 12:55:42;;;;;;;9.43;4.05;;;11.70;99.90;;;;;;20883543;28;20029;-76
2022/12/28 13:05:49;;;;;;;7.32;3.40;;;11.00;99.90;;;;;;20602438;28;20070;-77
2022/12/28 13:15:51;;;;;;;6.82;3.30;;;10.60;99.90;;;;;;20582017;28;20584;-77
2022/12/28 13:25:55;;;;;;;5.30;3.30;;;10.70;99.90;;;;;;20654873;28;20587;-77
2022/12/28 13:36:29;;;;;;;5.47;3.53;;;10.70;99.90;;;;;;20663245;28;20036;-77
2022/12/28 13:46:33;;;;;;;7.63;4.30;;;10.70;99.90;;;;;;20619308;28;20046;-76
2022/12/28 13:56:38;;;;;;;6.15;3.05;;;11.10;99.90;;;;;;20654445;28;20170;-76
2022/12/28 14:06:41;;;;;;;6.40;3.03;;;11.70;99.90;;;;;;20631084;28;20034;-76
2022/12/28 14:16:44;;;;;;;87.72;23.30;;;11.00;99.90;;;;;;20658440;28;20111;-76
2022/12/28 14:26:53;;;;;;;27.45;6.90;;;10.70;99.90;;;;;;20902945;28;20040;-76
2022/12/28 14:36:59;;;;;;;41.10;11.40;;;10.20;99.90;;;;;;20910469;28;20483;-76
2022/12/28 14:47:34;;;;;;;13.00;4.00;;;9.50;99.90;;;;;;20909472;28;20036;-77
2022/12/28 14:57:41;;;;;;;42.40;11.73;;;9.50;99.90;;;;;;20908862;28;20503;-77
2022/12/28 15:07:42;;;;;;;10.48;3.00;;;8.60;99.90;;;;;;20907422;28;20082;-76
2022/12/28 15:17:43;;;;;;;4.93;2.57;;;7.90;99.90;;;;;;20907905;28;20033;-77
2022/12/28 15:27:48;;;;;;;15.77;4.63;;;7.90;99.90;;;;;;20923300;28;20021;-76
2022/12/28 15:37:49;;;;;;;5.20;3.10;;;7.30;99.90;;;;;;20911864;28;20040;-77
2022/12/28 15:47:53;;;;;;;10.13;3.93;;;7.30;99.90;;;;;;20813738;28;20393;-76
2022/12/28 15:57:54;;;;;;;11.13;4.85;;;6.50;99.90;;;;;;20818194;28;20129;-76
2022/12/28 16:07:56;;;;;;;;;;;6.10;99.90;;;;;;20836887;28;20553;-77
2022/12/28 16:17:58;;;;;;;9.10;5.40;;;6.00;99.90;;;;;;20918064;28;19916;-76
2022/12/28 16:28:03;;;;;;;7.30;4.45;;;5.70;99.90;;;;;;21060154;22;20040;-78
2022/12/28 16:38:05;;;;;;;13.65;4.38;;;5.60;99.90;;;;;;21147804;28;20032;-79
2022/12/28 16:48:10;;;;;;;6.40;3.97;;;5.20;99.90;;;;;;21117287;28;20025;-79
2022/12/28 16:58:12;;;;;;;7.60;4.00;;;5.20;99.90;;;;;;21109286;28;20047;-80
2022/12/28 17:08:13;;;;;;;7.90;4.13;;;4.90;99.90;;;;;;21110856;28;20044;-79
2022/12/28 17:18:14;;;;;;;;;;;5.20;99.90;;;;;;21135560;28;20070;-78
2022/12/28 17:28:16;;;;;;;10.27;4.57;;;5.20;99.90;;;;;;21136282;28;20289;-78
2022/12/28 17:38:17;;;;;;;8.43;4.53;;;5.10;99.90;;;;;;21133736;28;20111;-79
2022/12/28 17:48:25;;;;;;;6.32;4.05;;;4.80;99.90;;;;;;21103179;28;20052;-80
2022/12/28 17:58:27;;;;;;;7.68;4.05;;;5.00;99.90;;;;;;21171100;28;20458;-79
2022/12/28 18:08:28;;;;;;;9.20;4.10;;;5.10;99.90;;;;;;21117476;28;20460;-79
2022/12/28 18:18:30;;;;;;;9.75;3.78;;;5.10;99.90;;;;;;21109150;28;20028;-80
2022/12/28 18:28:33;;;;;;;6.75;3.63;;;5.20;99.90;;;;;;21183357;28;20043;-80
2022/12/28 18:38:39;;;;;;;8.57;4.00;;;5.30;99.90;;;;;;21129597;28;20039;-80
2022/12/28 18:48:40;;;;;;;6.70;3.28;;;5.40;99.90;;;;;;21068773;28;20478;-79
2022/12/28 18:58:42;;;;;;;5.03;2.70;;;5.20;99.90;;;;;;21128644;28;20020;-79
2022/12/28 19:08:42;;;;;;;7.22;3.08;;;5.50;99.90;;;;;;21125170;28;20402;-81
2022/12/28 19:18:44;;;;;;;;;;;5.50;99.90;;;;;;21094636;28;20073;-82
2022/12/28 19:28:47;;;;;;;6.18;3.15;;;5.40;99.90;;;;;;21040992;28;20294;-81
2022/12/28 19:38:53;;;;;;;6.97;2.97;;;5.30;99.90;;;;;;21037908;28;20448;-82
2022/12/28 19:48:53;;;;;;;7.85;3.22;;;5.30;99.90;;;;;;21052974;28;20043;-81
2022/12/28 19:58:57;;;;;;;5.22;2.70;;;5.30;99.90;;;;;;21136499;28;20032;-81
2022/12/28 20:09:00;;;;;;;5.93;2.65;;;5.20;99.90;;;;;;21123082;28;20028;-81
2022/12/28 20:19:05;;;;;;;4.50;2.55;;;5.20;99.90;;;;;;21115757;28;20032;-79
2022/12/28 20:29:06;;;;;;;5.38;3.10;;;4.90;99.90;;;;;;21111329;28;20478;-80
2022/12/28 20:39:07;;;;;;;5.75;2.95;;;4.40;99.90;;;;;;21103140;28;20422;-78
2022/12/28 20:49:08;;;;;;;5.60;2.80;;;4.20;99.90;;;;;;21122353;28;20031;-80
2022/12/28 20:59:12;;;;;;;4.07;2.60;;;4.40;99.90;;;;;;21102082;28;20044;-80
2022/12/28 21:09:14;;;;;;;5.05;2.70;;;4.40;99.90;;;;;;21117802;28;20036;-79
2022/12/28 21:19:15;;;;;;;12.15;3.50;;;4.30;99.90;;;;;;21058459;28;20037;-80
2022/12/28 21:29:16;;;;;;;5.38;3.17;;;4.30;99.90;;;;;;21027616;28;20045;-81
2022/12/28 21:39:18;;;;;;;6.35;2.92;;;4.20;99.90;;;;;;21104766;28;20398;-79
2022/12/28 21:49:19;;;;;;;4.47;2.90;;;4.00;99.90;;;;;;21187871;28;20039;-80
2022/12/28 21:59:22;;;;;;;4.25;2.50;;;3.80;99.90;;;;;;21116507;28;20028;-81
2022/12/28 22:19:42;;;;;;;3.95;2.40;;;4.10;99.90;;;;;;21183262;28;20043;-80
2022/12/28 22:29:43;;;;;;;12.32;3.58;;;3.80;99.90;;;;;;21007104;22;20507;-76
2022/12/28 22:39:44;;;;;;;6.45;3.00;;;3.70;99.90;;;;;;20867750;28;20115;-76
2022/12/28 22:49:44;;;;;;;5.45;2.97;;;3.70;99.90;;;;;;20868355;28;20040;-75
2022/12/28 22:59:45;;;;;;;5.50;2.97;;;3.70;99.90;;;;;;20846036;28;20087;-76
2022/12/28 23:09:47;;;;;;;5.03;2.45;;;3.70;99.90;;;;;;20864527;28;20033;-76
2022/12/28 23:30:18;;;;;;;4.15;2.40;;;3.70;99.90;;;;;;20850718;28;20518;-77
2022/12/28 23:40:20;;;;;;;5.13;2.65;;;3.60;99.90;;;;;;20868582;28;20115;-77
2022/12/28 23:50:21;;;;;;;3.70;2.40;;;3.40;99.90;;;;;;20866136;28;20033;-77
